createdAt,value
2018-08-20T00:00:10.403Z,0.00
2018-08-20T00:01:10.444Z,0.00
2018-08-20T00:02:10.387Z,0.00
2018-08-20T00:03:10.450Z,0.00
2018-08-20T00:04:10.366Z,0.00
2018-08-20T00:05:10.402Z,0.00
2018-08-20T00:06:10.337Z,0.00
2018-08-20T00:07:10.430Z,0.00
2018-08-20T00:08:10.428Z,0.00
2018-08-20T00:09:10.384Z,0.00
2018-08-20T00:10:10.291Z,0.00
2018-08-20T00:11:10.277Z,0.00
2018-08-20T00:12:10.276Z,0.00
2018-08-20T00:13:10.257Z,0.00
2018-08-20T00:14:10.261Z,0.00
2018-08-20T00:15:10.243Z,0.00
2018-08-20T00:16:10.231Z,0.00
2018-08-20T00:17:10.273Z,0.00
2018-08-20T00:18:10.214Z,0.00
2018-08-20T00:19:10.218Z,0.00
2018-08-20T00:20:10.194Z,0.00
2018-08-20T00:21:10.292Z,0.00
2018-08-20T00:22:10.278Z,0.00
2018-08-20T00:23:10.159Z,0.00
2018-08-20T00:24:10.149Z,0.00
2018-08-20T00:25:10.139Z,0.00
2018-08-20T00:26:10.261Z,0.00
2018-08-20T00:27:10.126Z,0.00
2018-08-20T00:28:10.105Z,0.00
2018-08-20T00:29:10.101Z,0.00
2018-08-20T00:30:10.103Z,0.00
2018-08-20T00:31:10.072Z,0.00
2018-08-20T00:32:10.064Z,0.00
2018-08-20T00:33:10.049Z,0.00
2018-08-20T00:34:10.041Z,0.00
2018-08-20T00:35:10.023Z,0.00
2018-08-20T00:36:10.007Z,0.00
2018-08-20T00:37:10.009Z,0.00
2018-08-20T00:38:10.061Z,0.00
2018-08-20T00:39:10.001Z,0.00
2018-08-20T00:40:13.278Z,0.00
2018-08-20T00:41:10.061Z,0.00
2018-08-20T00:42:09.945Z,0.00
2018-08-20T00:43:09.948Z,0.00
2018-08-20T00:44:09.942Z,0.00
2018-08-20T00:45:09.921Z,0.00
2018-08-20T00:46:09.899Z,0.00
2018-08-20T00:47:09.888Z,0.00
2018-08-20T00:48:09.877Z,0.00
2018-08-20T00:49:09.885Z,0.00
2018-08-20T00:50:09.885Z,0.00
2018-08-20T00:51:09.869Z,0.00
2018-08-20T00:52:09.841Z,0.00
2018-08-20T00:53:09.878Z,0.00
2018-08-20T00:54:09.934Z,0.00
2018-08-20T00:55:09.825Z,0.00
2018-08-20T00:56:09.798Z,0.00
2018-08-20T00:57:09.841Z,0.00
2018-08-20T00:58:09.780Z,0.00
2018-08-20T00:59:09.892Z,0.00
2018-08-20T01:00:13.713Z,0.00
2018-08-20T01:01:09.774Z,0.00
2018-08-20T01:02:09.903Z,0.00
2018-08-20T01:03:09.740Z,0.00
2018-08-20T01:04:09.742Z,0.00
2018-08-20T01:05:09.701Z,0.00
2018-08-20T01:06:09.687Z,0.00
2018-08-20T01:07:09.676Z,0.00
2018-08-20T01:08:09.672Z,0.00
2018-08-20T01:09:09.667Z,0.00
2018-08-20T01:10:09.653Z,0.00
2018-08-20T01:11:09.651Z,0.00
2018-08-20T01:12:09.634Z,0.00
2018-08-20T01:13:09.620Z,0.00
2018-08-20T01:14:09.628Z,0.00
2018-08-20T01:15:09.597Z,0.00
2018-08-20T01:16:09.587Z,0.00
2018-08-20T01:17:09.594Z,0.00
2018-08-20T01:18:09.571Z,0.00
2018-08-20T01:19:09.589Z,0.00
2018-08-20T01:20:09.605Z,0.00
2018-08-20T01:21:09.528Z,0.00
2018-08-20T01:22:09.634Z,0.00
2018-08-20T01:23:09.592Z,0.00
2018-08-20T01:24:09.512Z,0.00
2018-08-20T01:25:09.516Z,0.00
2018-08-20T01:26:09.471Z,0.00
2018-08-20T01:27:09.479Z,0.00
2018-08-20T01:28:09.464Z,0.00
2018-08-20T01:29:09.456Z,0.00
2018-08-20T01:30:09.472Z,0.00
2018-08-20T01:31:09.420Z,0.00
2018-08-20T01:32:09.532Z,0.00
2018-08-20T01:33:09.405Z,0.00
2018-08-20T01:34:09.702Z,0.00
2018-08-20T01:35:09.396Z,0.00
2018-08-20T01:36:09.382Z,0.00
2018-08-20T01:37:09.355Z,0.00
2018-08-20T01:38:09.354Z,0.00
2018-08-20T01:39:09.331Z,0.00
2018-08-20T01:40:09.369Z,0.00
2018-08-20T01:41:09.336Z,0.00
2018-08-20T01:42:09.326Z,0.00
2018-08-20T01:43:09.416Z,0.00
2018-08-20T01:44:09.404Z,0.00
2018-08-20T01:45:09.311Z,0.00
2018-08-20T01:46:09.393Z,0.00
2018-08-20T01:47:09.274Z,0.00
2018-08-20T01:48:09.236Z,0.00
2018-08-20T01:49:09.242Z,0.00
2018-08-20T01:50:09.228Z,0.00
2018-08-20T01:51:09.377Z,0.00
2018-08-20T01:52:09.318Z,0.00
2018-08-20T01:53:09.250Z,0.00
2018-08-20T01:54:09.188Z,0.00
2018-08-20T01:55:09.175Z,0.00
2018-08-20T01:56:09.170Z,0.00
2018-08-20T01:57:09.144Z,0.00
2018-08-20T01:58:09.130Z,0.00
2018-08-20T01:59:09.150Z,0.00
2018-08-20T02:00:09.122Z,0.00
2018-08-20T02:01:09.115Z,0.00
2018-08-20T02:02:09.092Z,0.00
2018-08-20T02:03:09.088Z,0.00
2018-08-20T02:04:09.083Z,0.00
2018-08-20T02:05:09.088Z,0.00
2018-08-20T02:06:09.058Z,0.00
2018-08-20T02:07:09.064Z,0.00
2018-08-20T02:08:09.025Z,0.00
2018-08-20T02:09:09.024Z,0.00
2018-08-20T02:10:09.029Z,0.00
2018-08-20T02:11:09.016Z,0.00
2018-08-20T02:12:09.035Z,0.00
2018-08-20T02:13:08.998Z,0.00
2018-08-20T02:14:08.979Z,0.00
2018-08-20T02:15:08.963Z,0.00
2018-08-20T02:16:08.943Z,0.00
2018-08-20T02:17:08.938Z,0.00
2018-08-20T02:18:08.918Z,0.00
2018-08-20T02:19:08.925Z,0.00
2018-08-20T02:20:08.930Z,0.00
2018-08-20T02:21:08.910Z,0.00
2018-08-20T02:22:08.895Z,0.00
2018-08-20T02:23:08.862Z,0.00
2018-08-20T02:24:08.863Z,0.00
2018-08-20T02:25:08.982Z,0.00
2018-08-20T02:26:08.857Z,0.00
2018-08-20T02:27:08.943Z,0.00
2018-08-20T02:28:08.810Z,0.00
2018-08-20T02:29:08.800Z,0.00
2018-08-20T02:30:08.815Z,0.00
2018-08-20T02:31:08.852Z,0.00
2018-08-20T02:32:08.888Z,0.00
2018-08-20T02:33:08.790Z,0.00
2018-08-20T02:34:08.811Z,0.00
2018-08-20T02:35:08.761Z,0.00
2018-08-20T02:36:08.825Z,0.00
2018-08-20T02:37:08.716Z,0.00
2018-08-20T02:38:08.721Z,0.00
2018-08-20T02:39:08.698Z,0.00
2018-08-20T02:40:08.706Z,0.00
2018-08-20T02:41:08.689Z,0.00
2018-08-20T02:42:08.674Z,0.00
2018-08-20T02:43:08.679Z,0.00
2018-08-20T02:44:08.656Z,0.00
2018-08-20T02:45:08.660Z,0.00
2018-08-20T02:46:08.734Z,0.00
2018-08-20T02:47:08.610Z,0.00
2018-08-20T02:48:08.603Z,0.00
2018-08-20T02:49:08.601Z,0.00
2018-08-20T02:50:08.607Z,0.00
2018-08-20T02:51:08.578Z,0.00
2018-08-20T02:52:08.554Z,0.00
2018-08-20T02:53:08.557Z,0.00
2018-08-20T02:54:08.532Z,0.00
2018-08-20T02:55:08.551Z,0.00
2018-08-20T02:56:08.647Z,0.00
2018-08-20T02:57:08.508Z,0.00
2018-08-20T02:58:08.497Z,0.00
2018-08-20T02:59:08.493Z,0.00
2018-08-20T03:00:08.501Z,0.00
2018-08-20T03:01:08.470Z,0.00
2018-08-20T03:02:08.475Z,0.00
2018-08-20T03:03:08.448Z,0.00
2018-08-20T03:04:08.595Z,0.00
2018-08-20T03:05:08.441Z,0.00
2018-08-20T03:06:08.409Z,0.00
2018-08-20T03:07:08.419Z,0.00
2018-08-20T03:08:08.443Z,0.00
2018-08-20T03:09:08.395Z,0.00
2018-08-20T03:10:08.503Z,0.00
2018-08-20T03:11:08.363Z,0.00
2018-08-20T03:12:08.349Z,0.00
2018-08-20T03:13:08.328Z,0.00
2018-08-20T03:14:08.959Z,0.00
2018-08-20T03:15:08.325Z,0.00
2018-08-20T03:16:08.426Z,0.00
2018-08-20T03:17:08.301Z,0.00
2018-08-20T03:18:08.293Z,0.00
2018-08-20T03:19:08.391Z,0.00
2018-08-20T03:20:08.291Z,0.00
2018-08-20T03:21:08.259Z,0.00
2018-08-20T03:22:08.248Z,0.00
2018-08-20T03:23:08.248Z,0.00
2018-08-20T03:24:08.230Z,0.00
2018-08-20T03:25:08.449Z,0.00
2018-08-20T03:26:08.209Z,0.00
2018-08-20T03:27:08.200Z,0.00
2018-08-20T03:28:08.200Z,0.00
2018-08-20T03:29:08.188Z,0.00
2018-08-20T03:30:08.147Z,0.00
2018-08-20T03:31:08.142Z,0.00
2018-08-20T03:32:08.152Z,0.00
2018-08-20T03:33:08.282Z,0.00
2018-08-20T03:34:08.115Z,0.00
2018-08-20T03:35:08.210Z,0.00
2018-08-20T03:36:08.107Z,0.00
2018-08-20T03:37:08.088Z,0.00
2018-08-20T03:38:08.206Z,0.00
2018-08-20T03:39:08.076Z,0.00
2018-08-20T03:40:08.192Z,0.00
2018-08-20T03:41:08.052Z,0.00
2018-08-20T03:42:08.040Z,0.00
2018-08-20T03:43:08.051Z,0.00
2018-08-20T03:44:08.050Z,0.00
2018-08-20T03:45:08.011Z,0.00
2018-08-20T03:46:08.013Z,0.00
2018-08-20T03:47:07.999Z,0.00
2018-08-20T03:48:07.980Z,0.00
2018-08-20T03:49:07.945Z,0.00
2018-08-20T03:50:07.933Z,0.00
2018-08-20T03:51:07.993Z,0.00
2018-08-20T03:52:07.991Z,0.00
2018-08-20T03:53:07.916Z,0.00
2018-08-20T03:54:07.918Z,0.00
2018-08-20T03:55:07.882Z,0.00
2018-08-20T03:56:07.890Z,0.00
2018-08-20T03:57:07.875Z,0.00
2018-08-20T03:58:07.879Z,0.00
2018-08-20T03:59:07.839Z,0.00
2018-08-20T04:00:07.976Z,0.00
2018-08-20T04:01:07.836Z,0.00
2018-08-20T04:02:07.809Z,0.00
2018-08-20T04:03:07.810Z,0.00
2018-08-20T04:04:07.801Z,0.00
2018-08-20T04:05:07.874Z,0.00
2018-08-20T04:06:07.792Z,0.00
2018-08-20T04:07:07.792Z,0.00
2018-08-20T04:08:07.824Z,0.00
2018-08-20T04:09:07.732Z,0.00
2018-08-20T04:10:07.730Z,0.00
2018-08-20T04:11:07.725Z,0.00
2018-08-20T04:12:07.716Z,0.00
2018-08-20T04:13:07.704Z,0.00
2018-08-20T04:14:07.707Z,0.00
2018-08-20T04:15:07.679Z,0.00
2018-08-20T04:16:07.690Z,0.00
2018-08-20T04:17:07.785Z,0.00
2018-08-20T04:18:07.657Z,0.00
2018-08-20T04:19:07.624Z,0.00
2018-08-20T04:20:07.614Z,0.00
2018-08-20T04:21:07.630Z,0.00
2018-08-20T04:22:07.601Z,0.00
2018-08-20T04:23:07.600Z,4.00
2018-08-20T04:24:07.634Z,4.00
2018-08-20T04:25:07.560Z,4.00
2018-08-20T04:26:08.645Z,4.00
2018-08-20T04:27:07.552Z,0.00
2018-08-20T04:28:07.560Z,4.00
2018-08-20T04:29:07.521Z,4.00
2018-08-20T04:30:07.518Z,4.00
2018-08-20T04:31:07.784Z,4.00
2018-08-20T04:32:07.516Z,8.00
2018-08-20T04:33:07.488Z,8.00
2018-08-20T04:34:07.466Z,8.00
2018-08-20T04:35:07.480Z,12.00
2018-08-20T04:36:07.463Z,8.00
2018-08-20T04:37:07.454Z,8.00
2018-08-20T04:38:07.568Z,16.00
2018-08-20T04:39:07.425Z,16.00
2018-08-20T04:40:07.416Z,16.00
2018-08-20T04:41:07.530Z,16.00
2018-08-20T04:42:07.449Z,20.00
2018-08-20T04:43:07.522Z,24.00
2018-08-20T04:44:07.495Z,24.00
2018-08-20T04:45:07.458Z,28.00
2018-08-20T04:46:07.337Z,32.00
2018-08-20T04:47:07.364Z,36.00
2018-08-20T04:48:07.378Z,40.00
2018-08-20T04:49:07.334Z,40.00
2018-08-20T04:50:07.477Z,44.00
2018-08-20T04:51:07.570Z,44.00
2018-08-20T04:52:07.294Z,48.00
2018-08-20T04:53:07.286Z,52.00
2018-08-20T04:54:07.343Z,56.00
2018-08-20T04:55:07.258Z,56.00
2018-08-20T04:56:07.237Z,60.00
2018-08-20T04:57:07.233Z,60.00
2018-08-20T04:58:07.239Z,64.00
2018-08-20T04:59:07.221Z,68.00
2018-08-20T05:00:07.202Z,64.00
2018-08-20T05:01:07.191Z,68.00
2018-08-20T05:02:07.171Z,76.00
2018-08-20T05:03:07.173Z,76.00
2018-08-20T05:04:07.261Z,80.00
2018-08-20T05:05:07.172Z,84.00
2018-08-20T05:06:07.141Z,84.00
2018-08-20T05:07:07.113Z,88.00
2018-08-20T05:08:07.184Z,88.00
2018-08-20T05:09:07.402Z,92.00
2018-08-20T05:10:07.226Z,92.00
2018-08-20T05:11:07.083Z,92.00
2018-08-20T05:12:07.186Z,100.00
2018-08-20T05:13:07.071Z,100.00
2018-08-20T05:14:07.050Z,104.00
2018-08-20T05:15:07.060Z,112.00
2018-08-20T05:16:07.024Z,112.00
2018-08-20T05:17:07.014Z,116.00
2018-08-20T05:18:07.124Z,120.00
2018-08-20T05:19:07.074Z,120.00
2018-08-20T05:20:07.123Z,116.00
2018-08-20T05:21:06.977Z,116.00
2018-08-20T05:22:06.966Z,116.00
2018-08-20T05:23:07.022Z,120.00
2018-08-20T05:24:06.940Z,116.00
2018-08-20T05:25:06.993Z,120.00
2018-08-20T05:26:06.911Z,124.00
2018-08-20T05:27:06.914Z,124.00
2018-08-20T05:28:07.134Z,128.00
2018-08-20T05:29:06.901Z,136.00
2018-08-20T05:30:06.879Z,132.00
2018-08-20T05:31:06.860Z,128.00
2018-08-20T05:32:06.860Z,124.00
2018-08-20T05:33:06.883Z,136.00
2018-08-20T05:34:06.831Z,152.00
2018-08-20T05:35:06.831Z,156.00
2018-08-20T05:36:06.834Z,160.00
2018-08-20T05:37:06.820Z,144.00
2018-08-20T05:38:06.821Z,124.00
2018-08-20T05:39:06.790Z,112.00
2018-08-20T05:40:06.771Z,112.00
2018-08-20T05:41:06.776Z,124.00
2018-08-20T05:42:06.754Z,136.00
2018-08-20T05:43:06.742Z,140.00
2018-08-20T05:44:06.720Z,148.00
2018-08-20T05:45:06.731Z,160.00
2018-08-20T05:46:06.840Z,160.00
2018-08-20T05:47:06.718Z,160.00
2018-08-20T05:48:06.700Z,152.00
2018-08-20T05:49:06.800Z,164.00
2018-08-20T05:50:06.732Z,168.00
2018-08-20T05:51:06.754Z,180.00
2018-08-20T05:52:06.635Z,188.00
2018-08-20T05:53:06.639Z,184.00
2018-08-20T05:54:06.823Z,188.00
2018-08-20T05:55:06.634Z,192.00
2018-08-20T05:56:06.623Z,192.00
2018-08-20T05:57:06.614Z,200.00
2018-08-20T05:58:06.587Z,204.00
2018-08-20T05:59:06.595Z,208.00
2018-08-20T06:00:06.668Z,212.00
2018-08-20T06:01:06.551Z,212.00
2018-08-20T06:02:06.632Z,216.00
2018-08-20T06:03:06.646Z,212.00
2018-08-20T06:04:06.524Z,212.00
2018-08-20T06:05:06.523Z,216.00
2018-08-20T06:06:06.502Z,216.00
2018-08-20T06:07:06.493Z,220.00
2018-08-20T06:08:06.498Z,224.00
2018-08-20T06:09:06.469Z,232.00
2018-08-20T06:10:06.483Z,232.00
2018-08-20T06:11:06.444Z,232.00
2018-08-20T06:12:06.462Z,224.00
2018-08-20T06:13:06.567Z,224.00
2018-08-20T06:14:06.558Z,232.00
2018-08-20T06:15:06.442Z,232.00
2018-08-20T06:16:06.548Z,232.00
2018-08-20T06:17:06.391Z,232.00
2018-08-20T06:18:06.441Z,232.00
2018-08-20T06:19:06.362Z,224.00
2018-08-20T06:20:06.353Z,212.00
2018-08-20T06:21:06.452Z,212.00
2018-08-20T06:22:06.412Z,204.00
2018-08-20T06:23:06.406Z,200.00
2018-08-20T06:24:06.320Z,200.00
2018-08-20T06:25:07.413Z,204.00
2018-08-20T06:26:06.418Z,204.00
2018-08-20T06:27:06.274Z,216.00
2018-08-20T06:28:06.258Z,224.00
2018-08-20T06:29:06.278Z,244.00
2018-08-20T06:30:06.811Z,256.00
2018-08-20T06:31:06.311Z,264.00
2018-08-20T06:32:06.244Z,268.00
2018-08-20T06:33:06.285Z,292.00
2018-08-20T06:34:06.232Z,308.00
2018-08-20T06:35:06.185Z,308.00
2018-08-20T06:36:06.293Z,308.00
2018-08-20T06:37:06.221Z,312.00
2018-08-20T06:38:06.176Z,320.00
2018-08-20T06:39:06.172Z,328.00
2018-08-20T06:40:06.338Z,332.00
2018-08-20T06:41:06.134Z,332.00
2018-08-20T06:42:06.241Z,328.00
2018-08-20T06:43:06.191Z,328.00
2018-08-20T06:44:06.097Z,328.00
2018-08-20T06:45:06.088Z,336.00
2018-08-20T06:46:06.183Z,336.00
2018-08-20T06:47:06.076Z,332.00
2018-08-20T06:48:06.184Z,336.00
2018-08-20T06:49:08.588Z,332.00
2018-08-20T06:50:06.035Z,332.00
2018-08-20T06:51:06.147Z,332.00
2018-08-20T06:52:06.015Z,324.00
2018-08-20T06:53:06.150Z,324.00
2018-08-20T06:54:10.645Z,328.00
2018-08-20T06:55:05.976Z,328.00
2018-08-20T06:56:06.108Z,340.00
2018-08-20T06:57:06.045Z,344.00
2018-08-20T06:58:06.026Z,348.00
2018-08-20T06:59:05.959Z,360.00
2018-08-20T07:00:07.848Z,364.00
2018-08-20T07:01:05.916Z,360.00
2018-08-20T07:02:05.981Z,360.00
2018-08-20T07:03:06.071Z,376.00
2018-08-20T07:04:05.981Z,384.00
2018-08-20T07:05:05.868Z,392.00
2018-08-20T07:06:05.998Z,392.00
2018-08-20T07:07:05.850Z,392.00
2018-08-20T07:08:05.970Z,388.00
2018-08-20T07:09:05.835Z,388.00
2018-08-20T07:10:05.939Z,388.00
2018-08-20T07:11:05.939Z,388.00
2018-08-20T07:12:05.985Z,380.00
2018-08-20T07:13:05.868Z,376.00
2018-08-20T07:14:05.780Z,376.00
2018-08-20T07:15:06.575Z,368.00
2018-08-20T07:16:06.098Z,384.00
2018-08-20T07:17:05.864Z,388.00
2018-08-20T07:18:05.763Z,400.00
2018-08-20T07:19:05.724Z,408.00
2018-08-20T07:20:05.707Z,408.00
2018-08-20T07:21:05.822Z,396.00
2018-08-20T07:22:05.808Z,388.00
2018-08-20T07:23:05.860Z,376.00
2018-08-20T07:24:05.681Z,384.00
2018-08-20T07:25:05.756Z,380.00
2018-08-20T07:26:05.644Z,392.00
2018-08-20T07:27:05.622Z,392.00
2018-08-20T07:28:05.740Z,400.00
2018-08-20T07:29:05.666Z,408.00
2018-08-20T07:30:05.597Z,388.00
2018-08-20T07:31:05.590Z,360.00
2018-08-20T07:32:05.583Z,328.00
2018-08-20T07:33:05.707Z,304.00
2018-08-20T07:34:05.700Z,280.00
2018-08-20T07:35:05.568Z,272.00
2018-08-20T07:36:05.709Z,272.00
2018-08-20T07:37:05.637Z,272.00
2018-08-20T07:38:05.642Z,272.00
2018-08-20T07:39:05.646Z,292.00
2018-08-20T07:40:05.601Z,328.00
2018-08-20T07:41:05.618Z,368.00
2018-08-20T07:42:05.628Z,392.00
2018-08-20T07:43:05.580Z,404.00
2018-08-20T07:44:05.601Z,416.00
2018-08-20T07:45:05.435Z,408.00
2018-08-20T07:46:05.434Z,396.00
2018-08-20T07:47:05.561Z,376.00
2018-08-20T07:48:05.536Z,348.00
2018-08-20T07:49:05.567Z,344.00
2018-08-20T07:50:05.383Z,360.00
2018-08-20T07:51:05.369Z,392.00
2018-08-20T07:52:06.369Z,408.00
2018-08-20T07:53:05.381Z,408.00
2018-08-20T07:54:05.471Z,428.00
2018-08-20T07:55:05.345Z,444.00
2018-08-20T07:56:05.634Z,452.00
2018-08-20T07:57:05.450Z,464.00
2018-08-20T07:58:05.447Z,480.00
2018-08-20T07:59:09.763Z,492.00
2018-08-20T08:00:05.430Z,468.00
2018-08-20T08:01:05.392Z,456.00
2018-08-20T08:02:05.380Z,440.00
2018-08-20T08:03:05.364Z,436.00
2018-08-20T08:04:07.567Z,452.00
2018-08-20T08:05:05.341Z,456.00
2018-08-20T08:06:05.355Z,440.00
2018-08-20T08:07:05.223Z,464.00
2018-08-20T08:08:05.327Z,492.00
2018-08-20T08:09:05.198Z,500.00
2018-08-20T08:10:05.201Z,476.00
2018-08-20T08:11:05.172Z,460.00
2018-08-20T08:12:05.153Z,420.00
2018-08-20T08:13:05.148Z,384.00
2018-08-20T08:14:05.191Z,388.00
2018-08-20T08:15:05.254Z,392.00
2018-08-20T08:16:05.180Z,400.00
2018-08-20T08:17:05.108Z,396.00
2018-08-20T08:18:05.208Z,360.00
2018-08-20T08:19:05.159Z,304.00
2018-08-20T08:20:05.218Z,268.00
2018-08-20T08:21:05.125Z,268.00
2018-08-20T08:22:05.061Z,284.00
2018-08-20T08:23:05.116Z,296.00
2018-08-20T08:24:05.033Z,304.00
2018-08-20T08:25:05.147Z,320.00
2018-08-20T08:26:05.325Z,288.00
2018-08-20T08:27:05.106Z,264.00
2018-08-20T08:28:05.094Z,268.00
2018-08-20T08:29:05.009Z,300.00
2018-08-20T08:30:05.078Z,316.00
2018-08-20T08:31:05.097Z,328.00
2018-08-20T08:32:05.095Z,372.00
2018-08-20T08:33:05.066Z,420.00
2018-08-20T08:34:05.032Z,444.00
2018-08-20T08:35:05.821Z,456.00
2018-08-20T08:36:05.023Z,480.00
2018-08-20T08:37:05.028Z,496.00
2018-08-20T08:38:04.952Z,496.00
2018-08-20T08:39:04.911Z,504.00
2018-08-20T08:40:04.882Z,516.00
2018-08-20T08:41:04.999Z,524.00
2018-08-20T08:42:04.850Z,524.00
2018-08-20T08:43:04.870Z,520.00
2018-08-20T08:44:04.965Z,528.00
2018-08-20T08:45:05.198Z,536.00
2018-08-20T08:46:04.901Z,540.00
2018-08-20T08:47:04.903Z,536.00
2018-08-20T08:48:04.884Z,524.00
2018-08-20T08:49:04.896Z,524.00
2018-08-20T08:50:04.795Z,524.00
2018-08-20T08:51:04.909Z,528.00
2018-08-20T08:52:04.878Z,532.00
2018-08-20T08:53:04.836Z,524.00
2018-08-20T08:54:04.734Z,540.00
2018-08-20T08:55:04.854Z,572.00
2018-08-20T08:56:04.810Z,596.00
2018-08-20T08:57:04.698Z,588.00
2018-08-20T08:58:04.769Z,568.00
2018-08-20T08:59:04.796Z,520.00
2018-08-20T09:00:04.839Z,456.00
2018-08-20T09:01:04.966Z,396.00
2018-08-20T09:02:04.740Z,396.00
2018-08-20T09:03:04.625Z,452.00
2018-08-20T09:04:04.737Z,532.00
2018-08-20T09:05:04.622Z,580.00
2018-08-20T09:06:04.609Z,584.00
2018-08-20T09:07:04.726Z,596.00
2018-08-20T09:08:04.675Z,604.00
2018-08-20T09:09:04.648Z,592.00
2018-08-20T09:10:04.558Z,604.00
2018-08-20T09:11:05.340Z,632.00
2018-08-20T09:12:04.638Z,644.00
2018-08-20T09:13:04.527Z,656.00
2018-08-20T09:14:05.050Z,644.00
2018-08-20T09:15:04.585Z,620.00
2018-08-20T09:16:04.598Z,628.00
2018-08-20T09:17:04.622Z,624.00
2018-08-20T09:18:04.723Z,632.00
2018-08-20T09:19:05.001Z,660.00
2018-08-20T09:20:04.532Z,676.00
2018-08-20T09:21:04.443Z,676.00
2018-08-20T09:22:04.510Z,596.00
2018-08-20T09:23:04.407Z,500.00
2018-08-20T09:24:04.543Z,492.00
2018-08-20T09:25:04.516Z,564.00
2018-08-20T09:26:04.490Z,608.00
2018-08-20T09:27:04.447Z,640.00
2018-08-20T09:28:04.347Z,612.00
2018-08-20T09:29:04.454Z,592.00
2018-08-20T09:30:04.442Z,620.00
2018-08-20T09:31:04.434Z,660.00
2018-08-20T09:32:04.424Z,708.00
2018-08-20T09:33:04.474Z,748.00
2018-08-20T09:34:04.284Z,792.00
2018-08-20T09:35:04.397Z,772.00
2018-08-20T09:36:04.389Z,696.00
2018-08-20T09:37:06.741Z,688.00
2018-08-20T09:38:04.394Z,688.00
2018-08-20T09:39:04.367Z,676.00
2018-08-20T09:40:04.353Z,672.00
2018-08-20T09:41:04.332Z,716.00
2018-08-20T09:42:04.279Z,748.00
2018-08-20T09:43:04.314Z,764.00
2018-08-20T09:44:04.297Z,700.00
2018-08-20T09:45:04.287Z,648.00
2018-08-20T09:46:04.323Z,616.00
2018-08-20T09:47:04.293Z,608.00
2018-08-20T09:48:04.296Z,628.00
2018-08-20T09:49:04.239Z,716.00
2018-08-20T09:50:04.239Z,784.00
2018-08-20T09:51:04.113Z,788.00
2018-08-20T09:52:04.099Z,828.00
2018-08-20T09:53:04.244Z,884.00
2018-08-20T09:54:04.192Z,928.00
2018-08-20T09:55:04.217Z,924.00
2018-08-20T09:56:04.136Z,956.00
2018-08-20T09:57:04.597Z,984.00
2018-08-20T09:58:04.136Z,968.00
2018-08-20T09:59:04.146Z,928.00
2018-08-20T10:00:04.079Z,876.00
2018-08-20T10:01:06.848Z,816.00
2018-08-20T10:02:04.131Z,760.00
2018-08-20T10:03:04.090Z,776.00
2018-08-20T10:04:04.066Z,840.00
2018-08-20T10:05:04.075Z,904.00
2018-08-20T10:06:03.934Z,884.00
2018-08-20T10:07:04.053Z,820.00
2018-08-20T10:08:04.045Z,780.00
2018-08-20T10:09:03.922Z,796.00
2018-08-20T10:10:04.047Z,852.00
2018-08-20T10:11:03.881Z,852.00
2018-08-20T10:12:03.903Z,816.00
2018-08-20T10:13:04.139Z,784.00
2018-08-20T10:14:05.449Z,672.00
2018-08-20T10:15:03.961Z,504.00
2018-08-20T10:16:03.991Z,460.00
2018-08-20T10:17:04.017Z,488.00
2018-08-20T10:18:03.897Z,452.00
2018-08-20T10:19:03.861Z,376.00
2018-08-20T10:20:03.913Z,336.00
2018-08-20T10:21:03.903Z,324.00
2018-08-20T10:22:03.791Z,340.00
2018-08-20T10:23:03.891Z,368.00
2018-08-20T10:24:03.749Z,404.00
2018-08-20T10:25:03.877Z,384.00
2018-08-20T10:26:03.842Z,348.00
2018-08-20T10:27:03.856Z,320.00
2018-08-20T10:28:03.809Z,284.00
2018-08-20T10:29:03.715Z,272.00
2018-08-20T10:30:03.783Z,296.00
2018-08-20T10:31:03.811Z,344.00
2018-08-20T10:32:03.848Z,420.00
2018-08-20T10:33:03.766Z,492.00
2018-08-20T10:34:03.769Z,476.00
2018-08-20T10:35:03.823Z,416.00
2018-08-20T10:36:05.447Z,380.00
2018-08-20T10:37:03.756Z,356.00
2018-08-20T10:38:03.731Z,320.00
2018-08-20T10:39:03.758Z,296.00
2018-08-20T10:40:03.732Z,268.00
2018-08-20T10:41:03.671Z,248.00
2018-08-20T10:42:03.696Z,220.00
2018-08-20T10:43:03.664Z,208.00
2018-08-20T10:44:03.644Z,208.00
2018-08-20T10:45:03.570Z,192.00
2018-08-20T10:46:05.817Z,164.00
2018-08-20T10:47:03.638Z,160.00
2018-08-20T10:48:03.513Z,176.00
2018-08-20T10:49:03.613Z,208.00
2018-08-20T10:50:03.634Z,220.00
2018-08-20T10:51:03.565Z,224.00
2018-08-20T10:52:03.458Z,240.00
2018-08-20T10:53:03.531Z,268.00
2018-08-20T10:54:03.585Z,280.00
2018-08-20T10:55:03.517Z,292.00
2018-08-20T10:56:03.523Z,320.00
2018-08-20T10:57:03.401Z,372.00
2018-08-20T10:58:03.532Z,400.00
2018-08-20T10:59:03.512Z,396.00
2018-08-20T11:00:03.400Z,416.00
2018-08-20T11:01:03.407Z,440.00
2018-08-20T11:02:03.712Z,496.00
2018-08-20T11:03:03.449Z,556.00
2018-08-20T11:04:03.331Z,596.00
2018-08-20T11:05:04.668Z,632.00
2018-08-20T11:06:03.298Z,652.00
2018-08-20T11:07:03.421Z,672.00
2018-08-20T11:08:03.440Z,676.00
2018-08-20T11:09:03.267Z,656.00
2018-08-20T11:10:03.982Z,624.00
2018-08-20T11:11:03.372Z,584.00
2018-08-20T11:12:03.368Z,524.00
2018-08-20T11:13:03.368Z,488.00
2018-08-20T11:14:03.293Z,492.00
2018-08-20T11:15:03.321Z,508.00
2018-08-20T11:16:03.476Z,524.00
2018-08-20T11:17:03.342Z,556.00
2018-08-20T11:18:03.281Z,596.00
2018-08-20T11:19:03.285Z,628.00
2018-08-20T11:20:03.283Z,664.00
2018-08-20T11:21:03.138Z,700.00
2018-08-20T11:22:03.144Z,744.00
2018-08-20T11:23:03.129Z,772.00
2018-08-20T11:24:03.228Z,768.00
2018-08-20T11:25:03.222Z,772.00
2018-08-20T11:26:03.392Z,780.00
2018-08-20T11:27:03.228Z,812.00
2018-08-20T11:28:03.152Z,832.00
2018-08-20T11:29:03.166Z,832.00
2018-08-20T11:30:03.218Z,836.00
2018-08-20T11:31:03.086Z,840.00
2018-08-20T11:32:03.160Z,828.00
2018-08-20T11:33:03.010Z,792.00
2018-08-20T11:34:03.108Z,788.00
2018-08-20T11:35:03.903Z,812.00
2018-08-20T11:36:03.103Z,856.00
2018-08-20T11:37:02.985Z,908.00
2018-08-20T11:38:02.993Z,940.00
2018-08-20T11:39:03.087Z,920.00
2018-08-20T11:40:02.966Z,844.00
2018-08-20T11:41:02.949Z,800.00
2018-08-20T11:42:02.921Z,808.00
2018-08-20T11:43:02.930Z,812.00
2018-08-20T11:44:03.020Z,764.00
2018-08-20T11:45:03.144Z,720.00
2018-08-20T11:46:02.982Z,724.00
2018-08-20T11:47:02.899Z,692.00
2018-08-20T11:48:03.060Z,672.00
2018-08-20T11:49:02.885Z,648.00
2018-08-20T11:50:02.951Z,604.00
2018-08-20T11:51:02.947Z,564.00
2018-08-20T11:52:02.812Z,492.00
2018-08-20T11:53:02.943Z,532.00
2018-08-20T11:54:02.865Z,492.00
2018-08-20T11:55:02.822Z,428.00
2018-08-20T11:56:02.766Z,384.00
2018-08-20T11:57:02.864Z,360.00
2018-08-20T11:58:02.766Z,344.00
2018-08-20T11:59:02.945Z,308.00
2018-08-20T12:00:02.776Z,264.00
2018-08-20T12:01:02.748Z,228.00
2018-08-20T12:02:02.897Z,220.00
2018-08-20T12:03:02.869Z,212.00
2018-08-20T12:04:02.701Z,200.00
2018-08-20T12:05:02.748Z,168.00
2018-08-20T12:06:02.687Z,148.00
2018-08-20T12:07:03.250Z,152.00
2018-08-20T12:08:02.650Z,168.00
2018-08-20T12:09:02.632Z,180.00
2018-08-20T12:10:02.798Z,176.00
2018-08-20T12:11:02.685Z,172.00
2018-08-20T12:12:03.826Z,176.00
2018-08-20T12:13:02.746Z,208.00
2018-08-20T12:14:02.730Z,232.00
2018-08-20T12:15:02.689Z,216.00
2018-08-20T12:16:03.020Z,228.00
2018-08-20T12:17:02.591Z,256.00
2018-08-20T12:18:02.565Z,280.00
2018-08-20T12:19:02.606Z,280.00
2018-08-20T12:20:02.663Z,284.00
2018-08-20T12:21:02.503Z,284.00
2018-08-20T12:22:03.906Z,284.00
2018-08-20T12:23:02.585Z,312.00
2018-08-20T12:24:02.635Z,408.00
2018-08-20T12:25:02.477Z,472.00
2018-08-20T12:26:02.570Z,460.00
2018-08-20T12:27:02.582Z,420.00
2018-08-20T12:28:03.197Z,360.00
2018-08-20T12:29:02.540Z,328.00
2018-08-20T12:30:02.570Z,268.00
2018-08-20T12:31:02.594Z,256.00
2018-08-20T12:32:02.388Z,236.00
2018-08-20T12:33:02.538Z,212.00
2018-08-20T12:34:02.497Z,208.00
2018-08-20T12:35:02.420Z,196.00
2018-08-20T12:36:02.524Z,208.00
2018-08-20T12:37:02.420Z,224.00
2018-08-20T12:38:02.492Z,252.00
2018-08-20T12:39:02.424Z,280.00
2018-08-20T12:40:02.361Z,316.00
2018-08-20T12:41:02.451Z,312.00
2018-08-20T12:42:02.413Z,316.00
2018-08-20T12:43:02.416Z,304.00
2018-08-20T12:44:03.001Z,284.00
2018-08-20T12:45:02.363Z,316.00
2018-08-20T12:46:02.245Z,344.00